KSGF/SGF METAR and TAF weather

Enter ICAO airport designator
Station Type Date Time Source
KSGF METAR 2021/01/17 18:52 UTC NOAA

KSGF 171852Z 29011G21KT 10SM SCT060 BKN110 05/M02 A2988 RMK AO2 SLP125 T00501022


Station Type Date Time Source
KSGF Decoded METAR 2021/01/17 18:52 UTC NOAA

SPRINGFIELD-BRANSON NATIONAL, MO, United States (KSGF) 37-14N 93-23W 389M
Jan 17, 2021 - 01:52 PM EST / 2021.01.17 1852 UTC
Wind: from the WNW (290 degrees) at 13 MPH (11 KT) gusting to 24 MPH (21 KT):0
Visibility: 10 mile(s):0
Sky conditions: mostly cloudy
Temperature: 41.0 F (5.0 C)
Dew Point: 28.0 F (-2.2 C)
Relative Humidity: 59%
Pressure (altimeter): 29.88 in. Hg (1011 hPa)
ob: KSGF 171852Z 29011G21KT 10SM SCT060 BKN110 05/M02 A2988 RMK AO2 SLP125 T00501022
cycle: 19

Station Type Date Time Source
KSGF TAF 2021/01/17 18:22 UTC NOAA

TAF KSGF 171720Z 1718/1818 28010G21KT P6SM BKN100
FM172100 29012G21KT P6SM BKN040
FM172300 30011KT P6SM BKN080
FM180500 26005KT P6SM FEW250
FM181000 21005KT P6SM FEW250

Example: see airport list